Terminal Aerodrome Forecast
Issued by NWS Denver/Boulder, CO

Home | Current Version | Previous Version | Text Only | Print | Product List | Glossary On
Versions: 1 2 3 4 5 6 7 8 9 10 11 12 13 14 15 16 17 18 19 20 21 22 23 24 25 26 27 28 29 30 31 32 33 34 35 36 37 38 39 40 41 42 43 44 45
000
FTUS45 KBOU 250108 AAB
TAFDEN
TAF AMD
KDEN 250108Z 2501/2606 03015KT P6SM VCSH SCT080 BKN120
     FM250300 36010KT P6SM BKN090 BKN140
      TEMPO 2505/2508 -SHRA BKN060
     FM250900 25006KT P6SM SCT080 BKN220
     FM251600 34010KT P6SM SCT080 BKN140
     FM252100 36015KT P6SM -SHRA BKN060
     FM260200 02015KT P6SM VCSH SCT030 BKN060=

USA.gov is the U.S. government's official web portal to all federal, state and local government web resources and services.